Time;durP1;ratioP1;P1;durP2;ratioP2;P2;SDS_P1;SDS_P2;PMS_P1;PMS_P2;Temp;Humidity;BMP_temperature;BMP_pressure;BME280_temperature;BME280_humidity;BME280_pressure;Samples;Min_cycle;Max_cycle;Signal;HPM_P1;HPM_P2
2023/05/04 00:01:20;;;;;;;12.07;5.03;;;;;;;10.88;76.83;100756.61;1427157;91;21522;-81
2023/05/04 00:03:46;;;;;;;11.13;4.07;;;;;;;10.89;76.58;100760.09;1449084;89;22028;-81
2023/05/04 00:06:13;;;;;;;10.93;4.53;;;;;;;10.90;76.62;100757.78;1456464;89;21400;-81
2023/05/04 00:08:40;;;;;;;6.17;4.33;;;;;;;10.87;76.99;100760.22;1443834;89;22375;-81
2023/05/04 00:11:08;;;;;;;10.33;3.90;;;;;;;10.90;76.86;100751.16;1495525;87;22430;-82
2023/05/04 00:13:34;;;;;;;9.90;3.87;;;;;;;10.87;76.94;100751.45;1448619;89;21419;-82
2023/05/04 00:16:00;;;;;;;5.30;3.37;;;;;;;10.89;76.84;100761.42;1463509;88;21448;-82
2023/05/04 00:18:26;;;;;;;4.40;3.30;;;;;;;10.87;77.08;100756.74;1495047;87;22400;-81
2023/05/04 00:20:52;;;;;;;6.40;3.87;;;;;;;10.85;76.76;100754.25;1458634;89;21345;-80
2023/05/04 00:23:18;;;;;;;3.57;2.63;;;;;;;10.87;76.76;100752.77;1453648;89;21333;-81
2023/05/04 00:25:45;;;;;;;8.40;3.47;;;;;;;10.88;77.03;100761.08;1429796;90;21399;-80
2023/05/04 00:28:11;;;;;;;3.23;2.93;;;;;;;10.84;77.13;100761.83;1442857;91;21642;-80
2023/05/04 00:30:37;;;;;;;6.93;4.37;;;;;;;10.83;77.04;100748.25;1493459;86;21344;-80
2023/05/04 00:33:03;;;;;;;11.57;3.77;;;;;;;10.81;77.23;100751.03;1488833;86;21395;-80
2023/05/04 00:35:30;;;;;;;4.57;3.00;;;;;;;10.80;77.22;100748.53;1483579;87;21301;-80
2023/05/04 00:37:57;;;;;;;4.47;3.33;;;;;;;10.80;77.25;100749.37;1486210;87;21580;-80
2023/05/04 00:40:23;;;;;;;5.83;3.77;;;;;;;10.77;77.03;100744.36;1499906;87;21366;-83
2023/05/04 00:42:49;;;;;;;8.93;3.67;;;;;;;10.78;77.49;100749.98;1488500;87;21410;-81
2023/05/04 00:45:16;;;;;;;7.33;3.83;;;;;;;10.79;77.04;100755.66;1457504;89;21419;-79
2023/05/04 00:47:42;;;;;;;7.47;3.73;;;;;;;10.80;77.25;100745.89;1466266;89;21786;-81
2023/05/04 00:50:10;;;;;;;5.87;3.23;;;;;;;10.81;77.09;100744.41;1464294;89;21352;-81
2023/05/04 00:52:38;;;;;;;4.17;3.03;;;;;;;10.77;77.08;100750.97;1468028;89;21310;-81
2023/05/04 00:55:05;;;;;;;4.20;3.03;;;;;;;10.79;76.92;100742.41;1454559;89;22437;-81
2023/05/04 00:57:31;;;;;;;9.10;4.23;;;;;;;10.75;77.10;100748.95;1445802;90;21345;-80
2023/05/04 00:59:57;;;;;;;5.33;3.40;;;;;;;10.76;76.93;100742.70;1433565;91;21338;-80
2023/05/04 01:02:24;;;;;;;7.53;3.30;;;;;;;10.78;76.78;100731.95;1496458;87;22289;-79
2023/05/04 01:04:50;;;;;;;4.80;3.37;;;;;;;10.77;76.81;100734.26;1488058;86;22768;-79
2023/05/04 01:07:33;;;;;;;5.67;3.57;;;;;;;10.75;76.67;100729.09;1460943;89;21267;-79
2023/05/04 01:10:05;;;;;;;5.43;2.90;;;;;;;10.71;76.66;100727.72;1457793;89;21392;-80
2023/05/04 01:13:01;;;;;;;7.30;4.20;;;;;;;10.72;76.72;100732.52;1457850;89;22844;-80
2023/05/04 01:15:29;;;;;;;6.20;3.33;;;;;;;10.70;76.66;100735.30;1438018;89;21473;-79
2023/05/04 01:17:55;;;;;;;6.73;3.57;;;;;;;10.71;76.48;100733.02;1465069;89;22264;-79
2023/05/04 01:20:21;;;;;;;5.10;3.63;;;;;;;10.68;76.49;100734.62;1420202;91;21393;-80
2023/05/04 01:22:47;;;;;;;7.30;3.23;;;;;;;10.63;76.55;100735.52;1435070;91;21356;-82
2023/05/04 01:25:15;;;;;;;7.40;3.17;;;;;;;10.70;76.23;100745.05;1438744;91;21437;-80
2023/05/04 01:27:52;;;;;;;5.37;3.63;;;;;;;10.69;76.23;100740.74;1442879;89;21408;-84
2023/05/04 01:30:27;;;;;;;4.03;3.20;;;;;;;10.71;76.03;100737.48;1457296;89;21554;-82
2023/05/04 01:32:54;;;;;;;5.33;3.57;;;;;;;10.71;76.10;100739.63;1460606;89;21495;-83
2023/05/04 01:35:21;;;;;;;4.43;3.43;;;;;;;10.67;76.20;100744.84;1454890;89;21385;-82
2023/05/04 01:37:48;;;;;;;8.67;4.27;;;;;;;10.64;76.20;100740.32;1462907;89;22535;-83
2023/05/04 01:40:14;;;;;;;8.47;3.53;;;;;;;10.66;76.15;100749.80;1461168;88;21389;-82
2023/05/04 01:42:41;;;;;;;8.17;3.50;;;;;;;10.68;75.99;100747.86;1496482;87;22350;-82
2023/05/04 01:45:08;;;;;;;5.87;3.30;;;;;;;10.65;76.08;100742.84;1493349;86;21581;-83
2023/05/04 01:47:35;;;;;;;4.83;3.40;;;;;;;10.62;76.13;100744.45;1500117;87;22340;-84
2023/05/04 01:50:01;;;;;;;5.93;3.57;;;;;;;10.60;76.27;100742.42;1496613;85;21467;-82
2023/05/04 01:52:28;;;;;;;4.20;3.23;;;;;;;10.61;76.33;100742.76;1490884;87;21462;-81
2023/05/04 01:54:54;;;;;;;5.10;3.60;;;;;;;10.58;76.39;100743.04;1461293;89;21336;-82
2023/05/04 01:57:20;;;;;;;4.40;2.93;;;;;;;10.61;75.97;100741.44;1459764;89;21434;-80
2023/05/04 01:59:46;;;;;;;6.50;3.10;;;;;;;10.59;76.34;100742.09;1470156;89;21352;-81
2023/05/04 02:02:12;;;;;;;5.80;3.70;;;;;;;10.59;75.91;100738.11;1467999;89;22368;-81
2023/05/04 02:04:40;;;;;;;4.97;2.67;;;;;;;10.58;76.14;100744.36;1467405;89;21314;-82
2023/05/04 02:07:07;;;;;;;4.90;3.33;;;;;;;10.50;76.37;100745.08;1438268;89;22188;-81
2023/05/04 02:09:34;;;;;;;7.53;2.77;;;;;;;10.51;76.49;100738.80;1491423;86;21484;-81
2023/05/04 02:12:00;;;;;;;4.23;2.80;;;;;;;10.51;76.65;100737.97;1491595;86;21470;-81
2023/05/04 02:14:26;;;;;;;4.93;3.30;;;;;;;10.45;76.78;100734.07;1466102;87;21989;-82
2023/05/04 02:16:52;;;;;;;6.93;3.93;;;;;;;10.44;76.98;100736.84;1459481;87;21374;-83
2023/05/04 02:19:19;;;;;;;3.13;2.40;;;;;;;10.43;77.12;100737.83;1491622;86;21851;-84
2023/05/04 02:21:46;;;;;;;9.60;3.00;;;;;;;10.37;77.33;100736.08;1479903;86;22858;-85
2023/05/04 02:24:12;;;;;;;6.20;3.33;;;;;;;10.40;77.15;100729.67;1490119;87;21492;-84
2023/05/04 02:26:38;;;;;;;5.80;3.57;;;;;;;10.37;77.40;100741.37;1477024;87;22468;-83
2023/05/04 02:29:05;;;;;;;6.73;3.40;;;;;;;10.34;77.42;100735.03;1489233;87;21359;-85
2023/05/04 02:31:32;;;;;;;7.30;3.37;;;;;;;10.30;77.44;100733.66;1501902;87;21308;-84
2023/05/04 02:34:00;;;;;;;6.93;3.83;;;;;;;10.31;77.57;100737.95;1486400;86;21525;-85
2023/05/04 02:36:27;;;;;;;5.60;3.00;;;;;;;10.31;77.57;100737.95;1491717;87;21287;-85
2023/05/04 02:38:59;;;;;;;8.13;3.23;;;;;;;10.30;77.59;100738.95;1441608;89;22239;-82
2023/05/04 02:41:24;;;;;;;;;;;;;;;10.26;77.83;100740.14;1470611;89;21315;-86
2023/05/04 02:43:50;;;;;;;7.27;3.67;;;;;;;10.24;77.98;100744.76;1464824;89;20448;-85
2023/05/04 02:46:18;;;;;;;5.80;3.43;;;;;;;10.21;78.04;100742.85;1456053;89;21544;-84
2023/05/04 02:48:45;;;;;;;7.07;3.43;;;;;;;10.25;77.76;100752.20;1462054;88;21470;-83
2023/05/04 02:51:11;;;;;;;4.97;3.47;;;;;;;10.22;77.81;100748.02;1489939;87;21537;-84
2023/05/04 02:53:37;;;;;;;7.50;3.30;;;;;;;10.20;77.96;100756.56;1458425;89;22169;-84
2023/05/04 02:56:04;;;;;;;6.77;3.33;;;;;;;10.17;78.28;100756.84;1459742;89;21451;-84
2023/05/04 02:58:32;;;;;;;7.80;3.30;;;;;;;10.19;78.08;100752.75;1491759;86;21351;-84
2023/05/04 03:00:58;;;;;;;4.50;3.40;;;;;;;10.18;78.27;100753.22;1482170;87;21381;-85
2023/05/04 03:03:25;;;;;;;4.70;2.87;;;;;;;10.18;78.31;100758.50;1492637;87;22518;-84
2023/05/04 03:05:51;;;;;;;8.23;3.90;;;;;;;10.17;78.62;100748.91;1485619;86;21478;-85
2023/05/04 03:08:17;;;;;;;4.63;3.37;;;;;;;10.19;77.98;100748.30;1500208;87;21440;-84
2023/05/04 03:10:43;;;;;;;7.37;4.57;;;;;;;10.17;78.45;100743.62;1474034;86;21380;-83
2023/05/04 03:13:09;;;;;;;7.97;3.50;;;;;;;10.12;78.71;100748.48;1457984;88;21301;-84
2023/05/04 03:15:36;;;;;;;4.83;3.27;;;;;;;10.13;78.74;100747.52;1464764;88;21455;-83
2023/05/04 03:18:02;;;;;;;7.60;3.23;;;;;;;10.15;78.43;100748.20;1475337;88;21592;-83
2023/05/04 03:20:28;;;;;;;7.83;4.50;;;;;;;10.17;78.51;100748.91;1474206;88;21352;-83
2023/05/04 03:22:54;;;;;;;6.47;4.13;;;;;;;10.17;78.45;100748.91;1476636;88;21455;-83
2023/05/04 03:25:21;;;;;;;7.53;4.10;;;;;;;10.19;78.23;100743.00;1477535;85;21490;-81
2023/05/04 03:27:47;;;;;;;7.23;3.57;;;;;;;10.16;78.60;100738.82;1455648;89;21322;-81
2023/05/04 03:30:14;;;;;;;5.53;3.67;;;;;;;10.20;78.65;100745.98;1469726;89;21366;-81
2023/05/04 03:32:40;;;;;;;6.77;3.60;;;;;;;10.22;78.58;100740.58;1437457;89;21403;-82
2023/05/04 03:35:08;;;;;;;5.80;3.53;;;;;;;10.20;78.84;100742.02;1464797;89;21358;-81
2023/05/04 03:37:34;;;;;;;5.60;3.40;;;;;;;10.23;78.78;100745.71;1447240;89;22231;-82
2023/05/04 03:40:00;;;;;;;5.70;2.90;;;;;;;10.23;78.44;100745.71;1460138;89;21529;-84
2023/05/04 03:42:27;;;;;;;8.47;3.30;;;;;;;10.27;78.76;100747.16;1489358;87;21499;-85
2023/05/04 03:44:53;;;;;;;5.90;3.13;;;;;;;10.30;78.38;100752.17;1454101;89;22320;-84
2023/05/04 03:47:19;;;;;;;5.60;2.73;;;;;;;10.28;78.24;100751.46;1432868;89;21371;-83
2023/05/04 03:49:46;;;;;;;4.93;3.37;;;;;;;10.32;78.25;100752.84;1439684;90;21385;-83
2023/05/04 03:52:12;;;;;;;5.33;3.53;;;;;;;10.35;78.09;100751.25;1454478;89;21408;-83
2023/05/04 03:54:38;;;;;;;6.83;3.80;;;;;;;10.38;78.12;100756.26;1454917;90;21311;-83
2023/05/04 03:57:05;;;;;;;7.57;3.93;;;;;;;10.37;78.07;100754.59;1454816;89;22302;-84
2023/05/04 03:59:31;;;;;;;5.30;3.30;;;;;;;10.37;78.14;100750.62;1460800;90;21371;-84
2023/05/04 04:01:57;;;;;;;7.10;3.57;;;;;;;10.37;78.25;100758.56;1447323;89;21319;-84
2023/05/04 04:04:23;;;;;;;4.73;3.30;;;;;;;10.41;78.30;100758.29;1455366;90;22428;-83
2023/05/04 04:06:50;;;;;;;7.93;3.73;;;;;;;10.44;78.03;100756.69;1457176;89;21393;-83
2023/05/04 04:09:16;;;;;;;5.80;3.00;;;;;;;10.47;78.03;100769.64;1455675;89;21364;-84
2023/05/04 04:11:43;;;;;;;4.60;3.10;;;;;;;10.51;77.54;100764.44;1449329;89;21311;-83
2023/05/04 04:14:09;;;;;;;8.20;3.70;;;;;;;10.53;77.07;100766.43;1454085;90;21392;-83
2023/05/04 04:16:35;;;;;;;5.50;3.33;;;;;;;10.62;77.48;100766.95;1452733;90;22353;-81
2023/05/04 04:19:01;;;;;;;10.27;4.00;;;;;;;10.60;77.11;100766.24;1458939;89;21371;-83
2023/05/04 04:21:28;;;;;;;6.00;3.60;;;;;;;10.69;77.06;100757.45;1455337;89;21422;-84
2023/05/04 04:23:54;;;;;;;8.43;3.80;;;;;;;10.77;76.92;100769.51;1449955;90;21445;-84
2023/05/04 04:26:21;;;;;;;7.50;3.17;;;;;;;10.78;76.83;100764.55;1453541;90;21482;-84
2023/05/04 04:28:49;;;;;;;4.07;2.87;;;;;;;10.82;77.07;100759.34;1453644;90;21333;-83
2023/05/04 04:31:18;;;;;;;5.27;3.10;;;;;;;10.86;76.76;100753.76;1442592;90;21529;-83
2023/05/04 04:33:46;;;;;;;6.97;3.67;;;;;;;10.91;76.56;100760.80;1450275;90;22413;-84
2023/05/04 04:36:15;;;;;;;7.77;4.67;;;;;;;10.92;76.47;100754.52;1447913;90;21363;-82
2023/05/04 04:38:40;;;;;;;5.07;3.47;;;;;;;10.97;76.19;100758.91;1449190;90;21474;-83
2023/05/04 04:41:06;;;;;;;8.93;2.90;;;;;;;11.02;76.03;100763.29;1454602;90;21379;-84
2023/05/04 04:43:33;;;;;;;8.23;3.40;;;;;;;11.09;76.13;100767.02;1455263;90;22332;-84
2023/05/04 04:45:59;;;;;;;4.40;2.83;;;;;;;11.17;76.05;100768.48;1453353;89;21371;-82
2023/05/04 04:48:26;;;;;;;5.90;3.20;;;;;;;11.18;75.42;100775.44;1452342;90;22265;-82
2023/05/04 04:50:52;;;;;;;4.57;3.07;;;;;;;11.25;75.30;100774.39;1457179;89;21342;-83
2023/05/04 04:53:19;;;;;;;5.40;3.53;;;;;;;11.35;75.51;100783.63;1457901;89;22545;-83
2023/05/04 04:55:45;;;;;;;7.43;3.07;;;;;;;11.39;75.02;100782.34;1434872;90;21415;-83
2023/05/04 04:58:11;;;;;;;9.13;3.87;;;;;;;11.39;74.63;100783.18;1459749;89;21371;-83
2023/05/04 05:00:41;;;;;;;5.17;3.80;;;;;;;11.49;74.90;100782.67;1453677;90;21400;-82
2023/05/04 05:03:07;;;;;;;6.17;3.40;;;;;;;11.56;74.66;100788.22;1437759;90;22357;-85
2023/05/04 05:05:33;;;;;;;5.67;3.17;;;;;;;11.60;74.31;100784.31;1452930;90;21393;-85
2023/05/04 05:08:05;;;;;;;5.67;3.77;;;;;;;11.69;74.27;100784.77;1452348;90;21422;-85
2023/05/04 05:10:38;;;;;;;13.07;4.50;;;;;;;11.70;74.00;100783.77;1456176;90;21533;-84
2023/05/04 05:20:14;;;;;;;5.47;3.53;;;;;;;11.78;72.95;100794.98;1455235;90;21558;-84
2023/05/04 05:22:41;;;;;;;5.87;3.37;;;;;;;11.73;73.13;100803.36;1458252;89;21392;-82
2023/05/04 05:25:08;;;;;;;8.50;3.87;;;;;;;11.64;73.37;100804.23;1455382;89;21429;-83
2023/05/04 05:27:35;;;;;;;6.90;3.53;;;;;;;11.55;73.55;100818.38;1457060;90;22339;-83
2023/05/04 05:30:02;;;;;;;5.10;2.90;;;;;;;11.58;74.04;100819.41;1451703;90;21378;-83
2023/05/04 05:32:29;;;;;;;7.07;4.40;;;;;;;11.64;74.11;100817.50;1457239;90;21334;-85
2023/05/04 05:34:58;;;;;;;6.30;3.30;;;;;;;11.69;74.27;100813.92;1447630;89;21378;-84
2023/05/04 05:37:27;;;;;;;3.73;3.10;;;;;;;11.73;74.28;100807.34;1438134;89;21379;-80
2023/05/04 05:39:54;;;;;;;5.00;2.70;;;;;;;11.71;73.65;100801.37;1444417;90;21489;-81
2023/05/04 05:42:20;;;;;;;12.60;5.40;;;;;;;11.78;73.90;100798.95;1458005;90;21342;-82
2023/05/04 05:44:49;;;;;;;5.87;3.70;;;;;;;11.81;74.07;100805.30;1445945;89;21319;-81
2023/05/04 05:47:16;;;;;;;10.13;3.73;;;;;;;11.89;74.18;100817.86;1431696;90;21348;-80
2023/05/04 05:49:42;;;;;;;11.07;4.07;;;;;;;11.98;74.13;100822.28;1458421;89;21474;-81
2023/05/04 05:52:08;;;;;;;7.47;3.07;;;;;;;12.07;74.12;100824.05;1454342;89;21545;-82
2023/05/04 05:54:34;;;;;;;5.47;3.40;;;;;;;12.16;73.63;100824.98;1454053;90;21311;-82
2023/05/04 05:57:01;;;;;;;6.50;3.73;;;;;;;12.25;73.13;100821.92;1454136;90;21355;-82
2023/05/04 05:59:27;;;;;;;8.17;3.97;;;;;;;12.36;73.05;100827.02;1443810;90;21378;-82
2023/05/04 06:01:53;;;;;;;5.93;3.60;;;;;;;12.37;72.43;100826.03;1452126;89;22220;-83
2023/05/04 06:04:19;;;;;;;6.53;4.03;;;;;;;12.38;72.67;100813.95;1450660;90;21489;-82
2023/05/04 06:06:46;;;;;;;11.20;3.73;;;;;;;12.45;72.93;100819.48;1442430;90;21482;-82
2023/05/04 06:09:12;;;;;;;12.07;4.10;;;;;;;12.52;72.49;100816.59;1453541;89;22198;-82
2023/05/04 06:11:38;;;;;;;7.80;4.10;;;;;;;12.67;72.40;100822.70;1452432;89;21429;-81
2023/05/04 06:14:05;;;;;;;8.97;3.60;;;;;;;12.78;70.80;100811.85;1456420;89;21378;-81
2023/05/04 06:16:31;;;;;;;6.93;3.50;;;;;;;12.92;70.32;100817.09;1450630;89;21378;-81
2023/05/04 06:18:58;;;;;;;8.33;3.53;;;;;;;12.99;69.70;100812.85;1451708;90;21364;-83
2023/05/04 06:21:24;;;;;;;8.00;4.00;;;;;;;13.03;70.25;100811.54;1457061;89;21460;-82
2023/05/04 06:23:50;;;;;;;8.63;4.10;;;;;;;12.97;69.19;100806.34;1452375;89;22251;-80
2023/05/04 06:26:18;;;;;;;6.87;3.50;;;;;;;12.94;69.27;100817.28;1438888;90;21578;-81
2023/05/04 06:28:46;;;;;;;6.83;4.07;;;;;;;13.07;69.45;100818.23;1441636;90;21422;-81
2023/05/04 06:31:13;;;;;;;7.53;3.60;;;;;;;13.18;68.37;100828.62;1453928;89;21393;-82
2023/05/04 06:33:39;;;;;;;9.27;3.57;;;;;;;13.39;68.54;100838.09;1455840;89;21512;-81
2023/05/04 06:36:09;;;;;;;9.03;4.20;;;;;;;13.67;66.68;100849.42;1443076;90;21371;-81
2023/05/04 06:38:35;;;;;;;5.57;3.47;;;;;;;13.70;66.16;100845.11;1455072;89;21540;-83
2023/05/04 06:41:01;;;;;;;8.80;4.13;;;;;;;13.54;65.49;100841.34;1454713;90;22278;-81
2023/05/04 06:43:27;;;;;;;6.87;3.73;;;;;;;13.57;66.49;100838.04;1439935;90;21371;-83
2023/05/04 06:45:53;;;;;;;4.83;3.37;;;;;;;13.50;66.13;100849.81;1450075;90;21392;-82
2023/05/04 06:48:19;;;;;;;5.80;4.00;;;;;;;13.51;66.90;100845.65;1457085;89;21451;-82
2023/05/04 06:50:46;;;;;;;6.20;3.73;;;;;;;13.56;66.16;100849.68;1455205;89;21363;-82
2023/05/04 06:53:12;;;;;;;5.93;3.60;;;;;;;13.62;66.37;100849.05;1445362;89;21400;-83
2023/05/04 06:55:38;;;;;;;8.17;3.73;;;;;;;13.58;66.15;100847.67;1457227;89;22125;-83
2023/05/04 06:58:04;;;;;;;7.43;3.00;;;;;;;13.60;66.69;100844.38;1453241;89;21408;-83
2023/05/04 07:00:31;;;;;;;5.33;2.90;;;;;;;13.65;66.12;100844.74;1457763;89;21430;-83
2023/05/04 07:02:58;;;;;;;4.80;3.17;;;;;;;13.67;66.39;100848.09;1460987;90;22125;-83
2023/05/04 07:05:25;;;;;;;7.50;3.90;;;;;;;13.69;66.03;100847.41;1457503;89;22352;-82
2023/05/04 07:07:51;;;;;;;7.07;3.97;;;;;;;13.70;66.23;100846.44;1450476;90;21385;-82
2023/05/04 07:10:18;;;;;;;4.90;2.47;;;;;;;13.75;66.34;100852.09;1454772;90;21500;-84
2023/05/04 07:12:44;;;;;;;7.10;3.60;;;;;;;13.72;65.55;100846.63;1454284;90;22228;-82
2023/05/04 07:15:11;;;;;;;6.97;3.80;;;;;;;13.80;66.33;100847.14;1456494;89;21326;-82
2023/05/04 07:17:38;;;;;;;8.20;3.83;;;;;;;13.97;66.42;100852.05;1442516;90;21444;-82
2023/05/04 07:20:06;;;;;;;7.10;3.67;;;;;;;14.25;65.86;100846.02;1437357;90;21422;-82
2023/05/04 07:22:32;;;;;;;6.87;3.57;;;;;;;14.50;64.93;100850.06;1455632;89;22546;-82
2023/05/04 07:25:00;;;;;;;10.67;2.87;;;;;;;14.88;64.75;100847.35;1443144;90;21438;-81
2023/05/04 07:27:27;;;;;;;7.10;3.83;;;;;;;14.98;61.79;100848.52;1455713;89;21544;-83
2023/05/04 07:29:55;;;;;;;12.87;3.53;;;;;;;14.91;62.15;100838.20;1452899;89;21342;-84
2023/05/04 07:32:21;;;;;;;9.83;4.20;;;;;;;15.00;62.11;100838.53;1458005;90;21408;-89
2023/05/04 07:34:47;;;;;;;7.20;3.23;;;;;;;15.06;61.92;100855.18;1459634;89;21514;-87
2023/05/04 07:37:15;;;;;;;7.17;3.40;;;;;;;15.15;61.53;100847.52;1443175;90;21423;-91
2023/05/04 07:39:42;;;;;;;4.20;2.87;;;;;;;15.23;60.82;100852.84;1443669;90;21348;-88
2023/05/04 07:42:10;;;;;;;5.87;3.50;;;;;;;15.38;61.04;100841.50;1456310;89;21385;-85
2023/05/04 07:44:36;;;;;;;5.03;3.30;;;;;;;15.42;60.97;100843.67;1466009;89;22376;-84
2023/05/04 07:47:03;;;;;;;8.67;5.00;;;;;;;15.30;60.45;100839.66;1454804;89;21384;-85
2023/05/04 07:49:29;;;;;;;7.47;3.47;;;;;;;15.50;61.02;100835.62;1458264;89;21356;-84
2023/05/04 07:51:55;;;;;;;6.53;3.33;;;;;;;15.72;60.00;100834.63;1454671;89;21371;-83
2023/05/04 07:54:22;;;;;;;7.80;4.40;;;;;;;15.70;58.78;100841.96;1466307;90;22428;-84
2023/05/04 07:56:48;;;;;;;7.07;3.10;;;;;;;15.58;59.45;100848.13;1456124;89;21326;-83
2023/05/04 07:59:19;;;;;;;5.80;3.27;;;;;;;15.75;60.63;100849.79;1451682;89;21415;-84
2023/05/04 08:01:46;;;;;;;7.47;3.33;;;;;;;15.81;58.77;100851.45;1442062;90;21452;-84
2023/05/04 08:04:12;;;;;;;5.47;3.50;;;;;;;15.49;59.00;100858.49;1449948;89;21475;-85
2023/05/04 08:06:38;;;;;;;4.83;3.27;;;;;;;15.63;59.01;100844.97;1439738;90;21436;-81
2023/05/04 08:09:05;;;;;;;7.77;4.00;;;;;;;15.85;59.59;100844.23;1434418;90;21333;-82
2023/05/04 08:11:34;;;;;;;6.00;3.30;;;;;;;15.87;59.69;100834.74;1457547;90;22286;-81
2023/05/04 08:18:01;;;;;;;4.30;3.30;;;;;;;16.07;58.65;100836.00;1452814;90;21614;-83
2023/05/04 08:20:27;;;;;;;7.33;3.83;;;;;;;16.23;58.70;100837.27;1453947;89;22398;-82
2023/05/04 08:22:53;;;;;;;8.97;3.73;;;;;;;16.46;58.38;100839.98;1453198;90;21319;-85
2023/05/04 08:25:21;;;;;;;10.40;3.47;;;;;;;16.53;57.66;100837.42;1418646;90;21438;-83
2023/05/04 08:27:47;;;;;;;7.73;3.50;;;;;;;16.53;57.82;100837.42;1455555;89;21573;-83
2023/05/04 08:30:15;;;;;;;4.73;3.30;;;;;;;16.47;57.36;100834.13;1424379;90;21555;-84
2023/05/04 08:32:42;;;;;;;3.83;2.93;;;;;;;16.38;57.87;100834.67;1457935;90;22444;-86
2023/05/04 08:35:08;;;;;;;8.93;3.13;;;;;;;16.47;56.97;100836.80;1459368;90;21334;-85
2023/05/04 08:37:35;;;;;;;8.63;4.30;;;;;;;16.63;58.06;100836.70;1458691;90;21326;-85
2023/05/04 08:40:03;;;;;;;5.60;3.33;;;;;;;16.99;59.00;100834.79;1455857;89;21400;-85
2023/05/04 08:42:32;;;;;;;6.77;2.80;;;;;;;17.22;56.80;100834.76;1456426;90;21511;-85
2023/05/04 08:44:58;;;;;;;8.00;3.50;;;;;;;17.19;54.79;100830.28;1453938;89;21319;-86
2023/05/04 08:47:27;;;;;;;6.33;3.17;;;;;;;17.21;55.39;100840.30;1455902;89;21370;-85
2023/05/04 08:49:55;;;;;;;6.90;3.23;;;;;;;17.32;55.83;100837.16;1446675;90;21867;-85
2023/05/04 08:52:26;;;;;;;5.67;3.63;;;;;;;17.35;54.82;100844.86;1456333;89;21304;-85
2023/05/04 08:54:54;;;;;;;16.30;4.23;;;;;;;17.32;55.29;100835.83;1455214;90;21453;-85
2023/05/04 08:57:24;;;;;;;5.00;3.17;;;;;;;17.46;56.41;100842.22;1452716;89;21319;-86
2023/05/04 08:59:53;;;;;;;5.03;3.70;;;;;;;17.58;55.75;100840.27;1453311;90;21437;-87
2023/05/04 09:02:22;;;;;;;4.23;3.10;;;;;;;17.58;55.04;100838.93;1452685;89;21555;-85
2023/05/04 09:04:53;;;;;;;5.40;3.33;;;;;;;17.45;54.53;100837.38;1457340;90;21444;-87
2023/05/04 09:07:22;;;;;;;11.30;3.58;;;;;;;17.49;54.87;100834.69;1458852;85;21496;-85
2023/05/04 09:09:50;;;;;;;6.13;3.60;;;;;;;17.56;55.32;100834.27;1440766;90;21526;-87
2023/05/04 09:12:17;;;;;;;6.07;3.57;;;;;;;17.60;54.12;100832.04;1460269;89;21363;-88
2023/05/04 09:14:49;;;;;;;6.13;3.67;;;;;;;17.64;55.03;100829.85;1451225;90;21370;-85
2023/05/04 09:17:16;;;;;;;10.07;4.27;;;;;;;17.90;53.80;100827.56;1453022;89;21577;-87
2023/05/04 09:19:43;;;;;;;7.50;3.42;;;;;;;18.25;54.52;100833.15;1455300;89;21577;-87
2023/05/04 09:22:17;;;;;;;7.90;4.00;;;;;;;18.62;52.96;100833.46;1457830;89;21482;-87
2023/05/04 09:24:44;;;;;;;6.60;3.43;;;;;;;18.87;52.71;100829.08;1451554;90;21461;-87
2023/05/04 09:27:12;;;;;;;6.95;3.80;;;;;;;19.08;52.47;100824.22;1452976;89;21341;-86
2023/05/04 09:29:41;;;;;;;6.78;3.50;;;;;;;18.76;50.72;100821.54;1460290;89;22446;-86
2023/05/04 09:32:14;;;;;;;10.55;3.85;;;;;;;18.78;51.49;100817.65;1457970;89;21461;-86
2023/05/04 09:34:52;;;;;;;5.03;4.12;;;;;;;18.86;51.04;100822.06;1452322;89;22525;-88
2023/05/04 09:37:20;;;;;;;8.90;3.10;;;;;;;18.87;51.36;100813.84;1444465;90;21593;-87
2023/05/04 09:39:57;;;;;;;10.90;3.95;;;;;;;18.82;51.63;100813.58;1454775;89;22273;-87
2023/05/04 09:42:24;;;;;;;13.43;4.00;;;;;;;18.86;51.15;100808.14;1458412;90;22317;-87
2023/05/04 09:45:02;;;;;;;5.55;3.65;;;;;;;19.19;51.89;100811.62;1439936;90;21370;-88
2023/05/04 09:47:37;;;;;;;5.50;3.77;;;;;;;19.53;51.78;100805.95;1460487;90;21297;-89
2023/05/04 09:50:21;;;;;;;7.87;3.52;;;;;;;19.64;50.50;100801.38;1455554;90;22324;-88
2023/05/04 09:52:48;;;;;;;4.50;3.62;;;;;;;19.88;48.86;100802.79;1457847;90;21400;-88
2023/05/04 09:55:18;;;;;;;7.95;3.55;;;;;;;19.88;47.58;100802.79;1456262;89;21386;-88
2023/05/04 09:57:48;;;;;;;6.83;3.30;;;;;;;19.57;48.79;100802.69;1493454;87;21388;-86
2023/05/04 10:00:16;;;;;;;6.93;3.87;;;;;;;19.60;49.15;100800.13;1495043;87;22298;-89
2023/05/04 10:02:45;;;;;;;5.15;3.52;;;;;;;19.53;48.41;100800.06;1489875;87;22086;-88
2023/05/04 10:05:17;;;;;;;8.08;4.15;;;;;;;19.75;49.35;100796.00;1489019;87;21403;-87
2023/05/04 10:07:44;;;;;;;4.83;3.62;;;;;;;19.93;48.96;100797.62;1491019;87;22350;-88
2023/05/04 10:10:13;;;;;;;9.93;3.50;;;;;;;19.82;49.14;100789.64;1492761;87;21337;-88
2023/05/04 10:12:39;;;;;;;5.37;3.70;;;;;;;19.81;48.97;100787.97;1481364;87;21315;-86
2023/05/04 10:15:09;;;;;;;9.63;3.70;;;;;;;19.77;48.26;100784.55;1493820;87;21481;-87
2023/05/04 10:17:47;;;;;;;10.85;3.35;;;;;;;19.80;49.45;100779.60;1487302;87;21351;-88
2023/05/04 10:20:52;;;;;;;6.08;3.40;;;;;;;19.98;49.05;100783.60;1492311;87;21403;-86
2023/05/04 10:23:38;;;;;;;6.75;3.25;;;;;;;20.07;48.91;100774.33;1471033;87;22303;-86
2023/05/04 10:26:31;;;;;;;6.45;3.50;;;;;;;20.36;49.24;100776.37;1491880;87;21702;-86
2023/05/04 10:29:20;;;;;;;95.67;8.03;;;;;;;20.18;47.50;100771.06;1493028;87;22313;-88
2023/05/04 10:39:06;;;;;;;4.70;3.45;;;;;;;20.29;47.89;100776.37;1499301;87;21646;-86
2023/05/04 10:41:33;;;;;;;4.58;3.58;;;;;;;20.07;47.69;100770.30;1494213;87;21426;-89
2023/05/04 10:44:04;;;;;;;7.97;3.33;;;;;;;19.96;47.60;100773.05;1494857;87;22247;-89
2023/05/04 10:46:30;;;;;;;12.40;3.45;;;;;;;19.95;48.25;100772.74;1479995;87;21551;-88
2023/05/04 10:48:56;;;;;;;3.67;2.95;;;;;;;19.89;47.80;100768.70;1492908;87;21271;-86
2023/05/04 10:51:24;;;;;;;7.60;3.22;;;;;;;19.73;48.70;100769.33;1491737;87;21411;-85
2023/05/04 10:53:51;;;;;;;9.45;3.22;;;;;;;19.73;47.62;100770.67;1492422;87;21322;-87
2023/05/04 10:56:27;;;;;;;5.47;3.52;;;;;;;19.57;47.50;100770.99;1486293;87;21536;-87
2023/05/04 10:58:54;;;;;;;6.00;3.80;;;;;;;19.93;48.23;100764.56;1491624;87;21395;-89
2023/05/04 11:01:21;;;;;;;5.40;3.60;;;;;;;19.99;48.07;100762.41;1496744;87;21886;-89
2023/05/04 11:07:51;;;;;;;6.80;3.12;;;;;;;20.05;46.80;100762.95;1488798;87;21706;-88
2023/05/04 11:10:24;;;;;;;4.67;3.83;;;;;;;20.28;46.85;100756.73;1466296;87;21396;-88
2023/05/04 11:12:53;;;;;;;7.22;3.42;;;;;;;20.52;47.59;100755.84;1487733;86;21368;-87
2023/05/04 11:15:20;;;;;;;4.42;3.12;;;;;;;20.77;46.98;100751.22;1453145;84;21563;-86
2023/05/04 11:17:50;;;;;;;4.08;3.25;;;;;;;20.77;46.09;100747.19;1457722;88;21319;-84
2023/05/04 11:20:24;;;;;;;3.80;3.25;;;;;;;20.88;46.35;100742.53;1457740;88;21413;-87
2023/05/04 11:22:51;;;;;;;7.47;3.40;;;;;;;20.68;44.51;100740.66;1423816;90;22233;-89
2023/05/04 11:25:31;;;;;;;9.85;4.25;;;;;;;20.72;46.97;100737.06;1441890;88;21841;-88
2023/05/04 11:27:57;;;;;;;4.85;3.77;;;;;;;20.80;46.73;100736.01;1480234;87;22166;-86
2023/05/04 11:30:34;;;;;;;10.45;3.42;;;;;;;20.71;45.26;100733.55;1485603;87;21280;-89
2023/05/04 11:33:04;;;;;;;7.70;3.47;;;;;;;20.54;45.32;100734.96;1388649;88;22123;-85
2023/05/04 11:35:31;;;;;;;8.33;3.25;;;;;;;20.42;46.43;100733.37;1562073;85;21436;-88
2023/05/04 11:37:57;;;;;;;7.47;3.00;;;;;;;20.26;46.29;100734.60;1409411;87;21236;-86
2023/05/04 11:40:25;;;;;;;8.60;3.52;;;;;;;20.45;45.40;100737.52;1409398;87;21205;-86
2023/05/04 11:42:54;;;;;;;5.97;2.85;;;;;;;20.36;45.97;100734.72;1413356;87;21428;-85
2023/05/04 11:45:23;;;;;;;11.00;3.67;;;;;;;20.31;45.78;100731.80;1482469;87;21404;-87
2023/05/04 11:47:51;;;;;;;8.03;3.25;;;;;;;20.24;46.64;100738.00;1572400;87;22293;-86
2023/05/04 11:50:20;;;;;;;9.15;3.05;;;;;;;20.28;46.76;100736.58;1408195;87;21198;-88